sensor_id;sensor_type;location;lat;lon;timestamp;temperature;humidity
25512;DHT22;13414;44.534;18.700;2022-08-27T00:02:19;18.90;99.90
25512;DHT22;13414;44.534;18.700;2022-08-27T00:04:47;18.90;99.90
25512;DHT22;13414;44.534;18.700;2022-08-27T00:07:15;18.90;99.90
25512;DHT22;13414;44.534;18.700;2022-08-27T00:09:43;18.80;99.90
25512;DHT22;13414;44.534;18.700;2022-08-27T00:12:10;18.70;99.90
25512;DHT22;13414;44.534;18.700;2022-08-27T00:14:38;18.70;99.90
25512;DHT22;13414;44.534;18.700;2022-08-27T00:17:06;18.70;99.90
25512;DHT22;13414;44.534;18.700;2022-08-27T00:19:34;18.60;99.90
25512;DHT22;13414;44.534;18.700;2022-08-27T00:22:02;18.60;99.90
25512;DHT22;13414;44.534;18.700;2022-08-27T00:24:31;18.60;99.90
25512;DHT22;13414;44.534;18.700;2022-08-27T00:26:59;18.70;99.90
25512;DHT22;13414;44.534;18.700;2022-08-27T00:29:26;18.60;99.90
25512;DHT22;13414;44.534;18.700;2022-08-27T00:31:54;18.60;99.90
25512;DHT22;13414;44.534;18.700;2022-08-27T00:34:22;18.50;99.90
25512;DHT22;13414;44.534;18.700;2022-08-27T00:36:49;18.60;99.90
25512;DHT22;13414;44.534;18.700;2022-08-27T00:39:18;18.60;99.90
25512;DHT22;13414;44.534;18.700;2022-08-27T00:41:48;18.60;99.90
25512;DHT22;13414;44.534;18.700;2022-08-27T00:44:15;18.60;99.90
25512;DHT22;13414;44.534;18.700;2022-08-27T00:46:47;18.60;99.90
25512;DHT22;13414;44.534;18.700;2022-08-27T00:49:18;18.60;99.90
25512;DHT22;13414;44.534;18.700;2022-08-27T00:51:50;18.60;99.90
25512;DHT22;13414;44.534;18.700;2022-08-27T00:54:19;18.60;99.90
25512;DHT22;13414;44.534;18.700;2022-08-27T00:56:48;18.50;99.90
25512;DHT22;13414;44.534;18.700;2022-08-27T00:59:16;18.50;99.90
25512;DHT22;13414;44.534;18.700;2022-08-27T01:01:45;18.50;99.90
25512;DHT22;13414;44.534;18.700;2022-08-27T01:04:32;18.50;99.90
25512;DHT22;13414;44.534;18.700;2022-08-27T01:07:00;18.50;99.90
25512;DHT22;13414;44.534;18.700;2022-08-27T01:09:28;18.40;99.90
25512;DHT22;13414;44.534;18.700;2022-08-27T01:11:57;18.40;99.90
25512;DHT22;13414;44.534;18.700;2022-08-27T01:14:25;18.30;99.90
25512;DHT22;13414;44.534;18.700;2022-08-27T01:16:55;18.30;99.90
25512;DHT22;13414;44.534;18.700;2022-08-27T01:19:27;18.30;99.90
25512;DHT22;13414;44.534;18.700;2022-08-27T01:22:02;18.20;99.90
25512;DHT22;13414;44.534;18.700;2022-08-27T01:24:35;18.20;99.90
25512;DHT22;13414;44.534;18.700;2022-08-27T01:27:07;18.20;99.90
25512;DHT22;13414;44.534;18.700;2022-08-27T01:29:36;18.20;99.90
25512;DHT22;13414;44.534;18.700;2022-08-27T01:32:08;18.20;99.90
25512;DHT22;13414;44.534;18.700;2022-08-27T01:34:37;18.20;99.90
25512;DHT22;13414;44.534;18.700;2022-08-27T01:37:04;18.20;99.90
25512;DHT22;13414;44.534;18.700;2022-08-27T01:39:35;18.20;99.90
25512;DHT22;13414;44.534;18.700;2022-08-27T01:42:07;18.10;99.90
25512;DHT22;13414;44.534;18.700;2022-08-27T01:44:44;18.10;99.90
25512;DHT22;13414;44.534;18.700;2022-08-27T01:47:12;18.10;99.90
25512;DHT22;13414;44.534;18.700;2022-08-27T01:49:39;18.10;99.90
25512;DHT22;13414;44.534;18.700;2022-08-27T01:52:06;18.10;99.90
25512;DHT22;13414;44.534;18.700;2022-08-27T01:54:35;18.10;99.90
25512;DHT22;13414;44.534;18.700;2022-08-27T01:57:03;18.00;99.90
25512;DHT22;13414;44.534;18.700;2022-08-27T01:59:31;18.00;99.90
25512;DHT22;13414;44.534;18.700;2022-08-27T02:01:59;17.90;99.90
25512;DHT22;13414;44.534;18.700;2022-08-27T02:04:28;17.90;99.90
25512;DHT22;13414;44.534;18.700;2022-08-27T02:06:56;17.80;99.90
25512;DHT22;13414;44.534;18.700;2022-08-27T02:09:24;17.80;99.90
25512;DHT22;13414;44.534;18.700;2022-08-27T02:11:53;17.80;99.90
25512;DHT22;13414;44.534;18.700;2022-08-27T02:14:20;17.80;99.90
25512;DHT22;13414;44.534;18.700;2022-08-27T02:16:48;17.80;99.90
25512;DHT22;13414;44.534;18.700;2022-08-27T02:19:15;17.80;99.90
25512;DHT22;13414;44.534;18.700;2022-08-27T02:21:43;17.80;99.90
25512;DHT22;13414;44.534;18.700;2022-08-27T02:24:10;17.80;99.90
25512;DHT22;13414;44.534;18.700;2022-08-27T02:26:38;17.80;99.90
25512;DHT22;13414;44.534;18.700;2022-08-27T02:29:07;17.80;99.90
25512;DHT22;13414;44.534;18.700;2022-08-27T02:31:35;17.80;99.90
25512;DHT22;13414;44.534;18.700;2022-08-27T02:34:03;17.80;99.90
25512;DHT22;13414;44.534;18.700;2022-08-27T02:36:30;17.80;99.90
25512;DHT22;13414;44.534;18.700;2022-08-27T02:38:57;17.70;99.90
25512;DHT22;13414;44.534;18.700;2022-08-27T02:41:25;17.70;99.90
25512;DHT22;13414;44.534;18.700;2022-08-27T02:43:53;17.70;99.90
25512;DHT22;13414;44.534;18.700;2022-08-27T02:46:21;17.60;99.90
25512;DHT22;13414;44.534;18.700;2022-08-27T02:48:49;17.60;99.90
25512;DHT22;13414;44.534;18.700;2022-08-27T02:51:16;17.60;99.90
25512;DHT22;13414;44.534;18.700;2022-08-27T02:53:44;17.60;99.90
25512;DHT22;13414;44.534;18.700;2022-08-27T02:56:11;17.60;99.90
25512;DHT22;13414;44.534;18.700;2022-08-27T02:58:38;17.60;99.90
25512;DHT22;13414;44.534;18.700;2022-08-27T03:01:07;17.60;99.90
25512;DHT22;13414;44.534;18.700;2022-08-27T03:03:35;17.60;99.90
25512;DHT22;13414;44.534;18.700;2022-08-27T03:06:03;17.60;99.90
25512;DHT22;13414;44.534;18.700;2022-08-27T03:08:31;17.60;99.90
25512;DHT22;13414;44.534;18.700;2022-08-27T03:10:58;17.50;99.90
25512;DHT22;13414;44.534;18.700;2022-08-27T03:13:25;17.50;99.90
25512;DHT22;13414;44.534;18.700;2022-08-27T03:15:53;17.50;99.90
25512;DHT22;13414;44.534;18.700;2022-08-27T03:18:20;17.60;99.90
25512;DHT22;13414;44.534;18.700;2022-08-27T03:20:50;17.60;99.90
25512;DHT22;13414;44.534;18.700;2022-08-27T03:23:20;17.60;99.90
25512;DHT22;13414;44.534;18.700;2022-08-27T03:25:50;17.50;99.90
25512;DHT22;13414;44.534;18.700;2022-08-27T03:28:19;17.50;99.90
25512;DHT22;13414;44.534;18.700;2022-08-27T03:30:48;17.50;99.90
25512;DHT22;13414;44.534;18.700;2022-08-27T03:33:17;17.40;99.90
25512;DHT22;13414;44.534;18.700;2022-08-27T03:35:45;17.40;99.90
25512;DHT22;13414;44.534;18.700;2022-08-27T03:38:14;17.40;99.90
25512;DHT22;13414;44.534;18.700;2022-08-27T03:40:42;17.30;99.90
25512;DHT22;13414;44.534;18.700;2022-08-27T03:43:11;17.30;99.90
25512;DHT22;13414;44.534;18.700;2022-08-27T03:45:41;17.30;99.90
25512;DHT22;13414;44.534;18.700;2022-08-27T03:48:09;17.30;99.90
25512;DHT22;13414;44.534;18.700;2022-08-27T03:50:38;17.30;99.90
25512;DHT22;13414;44.534;18.700;2022-08-27T03:53:05;17.30;99.90
25512;DHT22;13414;44.534;18.700;2022-08-27T03:55:34;17.30;99.90
25512;DHT22;13414;44.534;18.700;2022-08-27T03:58:02;17.30;99.90
25512;DHT22;13414;44.534;18.700;2022-08-27T04:00:29;17.30;99.90
25512;DHT22;13414;44.534;18.700;2022-08-27T04:02:56;17.30;99.90
25512;DHT22;13414;44.534;18.700;2022-08-27T04:05:24;17.30;99.90
25512;DHT22;13414;44.534;18.700;2022-08-27T04:07:51;17.30;99.90
25512;DHT22;13414;44.534;18.700;2022-08-27T04:10:18;17.30;99.90
25512;DHT22;13414;44.534;18.700;2022-08-27T04:12:47;17.30;99.90
25512;DHT22;13414;44.534;18.700;2022-08-27T04:15:15;17.30;99.90
25512;DHT22;13414;44.534;18.700;2022-08-27T04:17:42;17.30;99.90
25512;DHT22;13414;44.534;18.700;2022-08-27T04:20:10;17.30;99.90
25512;DHT22;13414;44.534;18.700;2022-08-27T04:22:37;17.30;99.90
25512;DHT22;13414;44.534;18.700;2022-08-27T04:25:06;17.40;99.90
25512;DHT22;13414;44.534;18.700;2022-08-27T04:27:34;17.40;99.90
25512;DHT22;13414;44.534;18.700;2022-08-27T04:30:03;17.50;99.90
25512;DHT22;13414;44.534;18.700;2022-08-27T04:32:31;17.50;99.90
25512;DHT22;13414;44.534;18.700;2022-08-27T04:34:59;17.60;99.90
25512;DHT22;13414;44.534;18.700;2022-08-27T04:37:29;17.70;99.90
25512;DHT22;13414;44.534;18.700;2022-08-27T04:39:58;17.70;99.90
25512;DHT22;13414;44.534;18.700;2022-08-27T04:42:25;17.80;99.90
25512;DHT22;13414;44.534;18.700;2022-08-27T04:44:52;17.80;99.90
25512;DHT22;13414;44.534;18.700;2022-08-27T04:47:21;17.80;99.90
25512;DHT22;13414;44.534;18.700;2022-08-27T04:49:48;17.90;99.90
25512;DHT22;13414;44.534;18.700;2022-08-27T04:52:17;17.80;99.90
25512;DHT22;13414;44.534;18.700;2022-08-27T04:54:44;17.80;99.90
25512;DHT22;13414;44.534;18.700;2022-08-27T04:57:11;18.00;99.90
25512;DHT22;13414;44.534;18.700;2022-08-27T04:59:39;18.10;99.90
25512;DHT22;13414;44.534;18.700;2022-08-27T05:02:06;18.20;99.90
25512;DHT22;13414;44.534;18.700;2022-08-27T05:04:38;18.30;99.90
25512;DHT22;13414;44.534;18.700;2022-08-27T05:07:06;18.40;99.90
25512;DHT22;13414;44.534;18.700;2022-08-27T05:09:34;18.50;99.90
25512;DHT22;13414;44.534;18.700;2022-08-27T05:12:02;18.50;99.90
25512;DHT22;13414;44.534;18.700;2022-08-27T05:14:29;18.60;99.90
25512;DHT22;13414;44.534;18.700;2022-08-27T05:16:57;18.70;99.90
25512;DHT22;13414;44.534;18.700;2022-08-27T05:19:25;18.90;99.90
25512;DHT22;13414;44.534;18.700;2022-08-27T05:21:54;19.10;99.90
25512;DHT22;13414;44.534;18.700;2022-08-27T05:24:21;19.20;99.90
25512;DHT22;13414;44.534;18.700;2022-08-27T05:26:49;19.30;99.90
25512;DHT22;13414;44.534;18.700;2022-08-27T05:29:17;19.40;99.90
25512;DHT22;13414;44.534;18.700;2022-08-27T05:31:45;19.60;99.90
25512;DHT22;13414;44.534;18.700;2022-08-27T05:34:13;19.70;99.90
25512;DHT22;13414;44.534;18.700;2022-08-27T05:36:40;19.80;99.90
25512;DHT22;13414;44.534;18.700;2022-08-27T05:39:09;20.00;99.90
25512;DHT22;13414;44.534;18.700;2022-08-27T05:41:36;20.20;99.90
25512;DHT22;13414;44.534;18.700;2022-08-27T05:44:07;20.40;99.90
25512;DHT22;13414;44.534;18.700;2022-08-27T05:46:37;20.60;99.90
25512;DHT22;13414;44.534;18.700;2022-08-27T05:49:05;20.90;99.90
25512;DHT22;13414;44.534;18.700;2022-08-27T05:51:35;21.20;99.90
25512;DHT22;13414;44.534;18.700;2022-08-27T05:54:04;21.40;99.90
25512;DHT22;13414;44.534;18.700;2022-08-27T05:56:37;21.60;99.90
25512;DHT22;13414;44.534;18.700;2022-08-27T05:59:05;21.70;99.90
25512;DHT22;13414;44.534;18.700;2022-08-27T06:01:51;21.80;99.90
25512;DHT22;13414;44.534;18.700;2022-08-27T06:04:21;22.00;99.90
25512;DHT22;13414;44.534;18.700;2022-08-27T06:06:49;22.30;99.90
25512;DHT22;13414;44.534;18.700;2022-08-27T06:09:20;22.50;99.90
25512;DHT22;13414;44.534;18.700;2022-08-27T06:11:49;22.70;99.90
25512;DHT22;13414;44.534;18.700;2022-08-27T06:14:16;22.90;99.90
25512;DHT22;13414;44.534;18.700;2022-08-27T06:16:43;23.10;99.90
25512;DHT22;13414;44.534;18.700;2022-08-27T06:19:11;23.40;99.90
25512;DHT22;13414;44.534;18.700;2022-08-27T06:21:39;23.60;99.90
25512;DHT22;13414;44.534;18.700;2022-08-27T06:24:06;23.90;99.90
25512;DHT22;13414;44.534;18.700;2022-08-27T06:26:34;23.90;99.90
25512;DHT22;13414;44.534;18.700;2022-08-27T06:29:03;24.00;99.90
25512;DHT22;13414;44.534;18.700;2022-08-27T06:31:31;24.10;99.90
25512;DHT22;13414;44.534;18.700;2022-08-27T06:34:01;24.20;99.90
25512;DHT22;13414;44.534;18.700;2022-08-27T06:36:30;24.20;99.90
25512;DHT22;13414;44.534;18.700;2022-08-27T06:38:57;24.30;99.90
25512;DHT22;13414;44.534;18.700;2022-08-27T06:41:27;24.50;99.90
25512;DHT22;13414;44.534;18.700;2022-08-27T06:43:56;24.60;99.90
25512;DHT22;13414;44.534;18.700;2022-08-27T06:46:26;24.70;99.90
25512;DHT22;13414;44.534;18.700;2022-08-27T06:48:57;24.90;99.90
25512;DHT22;13414;44.534;18.700;2022-08-27T06:51:27;24.90;99.90
25512;DHT22;13414;44.534;18.700;2022-08-27T06:53:56;25.00;99.90
25512;DHT22;13414;44.534;18.700;2022-08-27T06:56:24;25.00;99.90
25512;DHT22;13414;44.534;18.700;2022-08-27T06:58:52;25.00;99.90
25512;DHT22;13414;44.534;18.700;2022-08-27T07:01:22;25.10;37.70
25512;DHT22;13414;44.534;18.700;2022-08-27T07:03:53;25.30;1.00
25512;DHT22;13414;44.534;18.700;2022-08-27T07:06:21;25.20;1.00
25512;DHT22;13414;44.534;18.700;2022-08-27T07:08:48;25.30;1.00
25512;DHT22;13414;44.534;18.700;2022-08-27T07:11:16;25.20;1.00
25512;DHT22;13414;44.534;18.700;2022-08-27T07:13:45;25.20;1.00
25512;DHT22;13414;44.534;18.700;2022-08-27T07:16:15;25.30;1.00
25512;DHT22;13414;44.534;18.700;2022-08-27T07:18:44;25.30;1.00
25512;DHT22;13414;44.534;18.700;2022-08-27T07:21:12;25.40;1.00
25512;DHT22;13414;44.534;18.700;2022-08-27T07:23:40;25.60;1.00
25512;DHT22;13414;44.534;18.700;2022-08-27T07:26:08;25.80;1.00
25512;DHT22;13414;44.534;18.700;2022-08-27T07:28:36;25.80;1.00
25512;DHT22;13414;44.534;18.700;2022-08-27T07:31:04;25.90;99.90
25512;DHT22;13414;44.534;18.700;2022-08-27T07:33:33;26.00;1.00
25512;DHT22;13414;44.534;18.700;2022-08-27T07:36:02;26.20;1.00
25512;DHT22;13414;44.534;18.700;2022-08-27T07:38:31;26.50;1.00
25512;DHT22;13414;44.534;18.700;2022-08-27T07:41:03;26.70;1.00
25512;DHT22;13414;44.534;18.700;2022-08-27T07:43:31;26.80;7.10
25512;DHT22;13414;44.534;18.700;2022-08-27T07:46:16;26.90;1.00
25512;DHT22;13414;44.534;18.700;2022-08-27T07:48:43;26.90;99.90
25512;DHT22;13414;44.534;18.700;2022-08-27T07:51:13;26.90;1.00
25512;DHT22;13414;44.534;18.700;2022-08-27T07:53:43;27.30;1.00
25512;DHT22;13414;44.534;18.700;2022-08-27T07:56:11;27.70;1.00
25512;DHT22;13414;44.534;18.700;2022-08-27T07:58:39;27.80;1.00
25512;DHT22;13414;44.534;18.700;2022-08-27T08:01:08;28.10;1.00
25512;DHT22;13414;44.534;18.700;2022-08-27T08:03:35;28.30;1.00
25512;DHT22;13414;44.534;18.700;2022-08-27T08:06:03;28.20;1.00
25512;DHT22;13414;44.534;18.700;2022-08-27T08:08:33;28.30;99.90
25512;DHT22;13414;44.534;18.700;2022-08-27T08:11:02;28.20;99.90
25512;DHT22;13414;44.534;18.700;2022-08-27T08:13:30;28.00;1.00
25512;DHT22;13414;44.534;18.700;2022-08-27T08:15:58;28.20;1.00
25512;DHT22;13414;44.534;18.700;2022-08-27T08:18:26;28.30;1.00
25512;DHT22;13414;44.534;18.700;2022-08-27T08:20:58;28.50;1.00
25512;DHT22;13414;44.534;18.700;2022-08-27T08:23:27;28.70;1.00
25512;DHT22;13414;44.534;18.700;2022-08-27T08:25:54;28.90;99.90
25512;DHT22;13414;44.534;18.700;2022-08-27T08:28:24;28.80;99.90
25512;DHT22;13414;44.534;18.700;2022-08-27T08:30:52;29.00;99.90
25512;DHT22;13414;44.534;18.700;2022-08-27T08:33:21;29.20;1.00
25512;DHT22;13414;44.534;18.700;2022-08-27T08:35:48;29.30;1.00
25512;DHT22;13414;44.534;18.700;2022-08-27T08:38:16;29.40;1.00
25512;DHT22;13414;44.534;18.700;2022-08-27T08:40:47;29.40;1.00
25512;DHT22;13414;44.534;18.700;2022-08-27T08:43:26;29.60;1.00
25512;DHT22;13414;44.534;18.700;2022-08-27T08:45:57;29.60;1.00
25512;DHT22;13414;44.534;18.700;2022-08-27T08:48:27;29.50;1.00
25512;DHT22;13414;44.534;18.700;2022-08-27T08:51:00;29.40;1.00
25512;DHT22;13414;44.534;18.700;2022-08-27T08:53:38;29.30;1.00
25512;DHT22;13414;44.534;18.700;2022-08-27T08:56:09;29.50;1.00
25512;DHT22;13414;44.534;18.700;2022-08-27T08:58:45;29.60;1.00
25512;DHT22;13414;44.534;18.700;2022-08-27T09:01:15;29.50;1.00
25512;DHT22;13414;44.534;18.700;2022-08-27T09:03:51;29.50;1.00
25512;DHT22;13414;44.534;18.700;2022-08-27T09:06:27;29.60;1.00
25512;DHT22;13414;44.534;18.700;2022-08-27T09:09:04;29.60;1.00
25512;DHT22;13414;44.534;18.700;2022-08-27T09:11:38;29.80;1.00
25512;DHT22;13414;44.534;18.700;2022-08-27T09:14:16;29.90;1.00
25512;DHT22;13414;44.534;18.700;2022-08-27T09:16:45;30.00;1.00
25512;DHT22;13414;44.534;18.700;2022-08-27T09:19:12;30.10;1.00
25512;DHT22;13414;44.534;18.700;2022-08-27T09:21:47;30.10;1.00
25512;DHT22;13414;44.534;18.700;2022-08-27T09:24:22;30.10;1.00
25512;DHT22;13414;44.534;18.700;2022-08-27T09:26:53;30.20;1.00
25512;DHT22;13414;44.534;18.700;2022-08-27T09:29:25;30.30;1.00
25512;DHT22;13414;44.534;18.700;2022-08-27T09:31:55;30.10;1.00
25512;DHT22;13414;44.534;18.700;2022-08-27T09:34:24;29.90;1.00
25512;DHT22;13414;44.534;18.700;2022-08-27T09:37:00;29.70;1.00
25512;DHT22;13414;44.534;18.700;2022-08-27T09:39:38;29.80;1.00
25512;DHT22;13414;44.534;18.700;2022-08-27T09:42:07;30.10;1.00
25512;DHT22;13414;44.534;18.700;2022-08-27T09:44:46;30.10;1.00
25512;DHT22;13414;44.534;18.700;2022-08-27T09:47:14;30.10;99.90
25512;DHT22;13414;44.534;18.700;2022-08-27T09:49:41;30.30;36.20
25512;DHT22;13414;44.534;18.700;2022-08-27T09:52:10;30.50;99.90
25512;DHT22;13414;44.534;18.700;2022-08-27T09:54:51;30.60;99.90
25512;DHT22;13414;44.534;18.700;2022-08-27T09:57:31;30.70;99.90
25512;DHT22;13414;44.534;18.700;2022-08-27T10:00:00;30.80;99.90
25512;DHT22;13414;44.534;18.700;2022-08-27T10:02:48;30.80;99.90
25512;DHT22;13414;44.534;18.700;2022-08-27T10:05:23;31.00;99.90
25512;DHT22;13414;44.534;18.700;2022-08-27T10:07:56;30.90;99.90
25512;DHT22;13414;44.534;18.700;2022-08-27T10:10:42;31.00;99.90
25512;DHT22;13414;44.534;18.700;2022-08-27T10:13:16;31.00;99.90
25512;DHT22;13414;44.534;18.700;2022-08-27T10:15:54;31.00;99.90
25512;DHT22;13414;44.534;18.700;2022-08-27T10:18:29;31.10;1.00
25512;DHT22;13414;44.534;18.700;2022-08-27T10:21:03;31.10;1.00
25512;DHT22;13414;44.534;18.700;2022-08-27T10:23:36;31.10;99.90
25512;DHT22;13414;44.534;18.700;2022-08-27T10:26:11;31.10;99.90
25512;DHT22;13414;44.534;18.700;2022-08-27T10:28:58;31.10;92.90
25512;DHT22;13414;44.534;18.700;2022-08-27T10:31:35;31.10;1.00
25512;DHT22;13414;44.534;18.700;2022-08-27T10:34:21;31.00;1.00
25512;DHT22;13414;44.534;18.700;2022-08-27T10:36:59;31.00;99.90
25512;DHT22;13414;44.534;18.700;2022-08-27T10:39:42;31.30;67.80
25512;DHT22;13414;44.534;18.700;2022-08-27T10:42:18;31.40;99.90
25512;DHT22;13414;44.534;18.700;2022-08-27T10:44:57;31.30;1.00
25512;DHT22;13414;44.534;18.700;2022-08-27T10:47:47;31.50;1.00
25512;DHT22;13414;44.534;18.700;2022-08-27T10:50:23;31.50;99.90
25512;DHT22;13414;44.534;18.700;2022-08-27T10:52:56;31.60;99.90
25512;DHT22;13414;44.534;18.700;2022-08-27T10:55:29;31.60;99.90
25512;DHT22;13414;44.534;18.700;2022-08-27T10:58:10;31.60;99.90
25512;DHT22;13414;44.534;18.700;2022-08-27T11:00:46;31.70;1.00
25512;DHT22;13414;44.534;18.700;2022-08-27T11:03:21;31.70;1.00
25512;DHT22;13414;44.534;18.700;2022-08-27T11:05:52;31.70;1.00
25512;DHT22;13414;44.534;18.700;2022-08-27T11:08:22;31.70;1.00
25512;DHT22;13414;44.534;18.700;2022-08-27T11:10:55;31.70;1.00
25512;DHT22;13414;44.534;18.700;2022-08-27T11:13:29;31.70;1.00
25512;DHT22;13414;44.534;18.700;2022-08-27T11:15:59;31.70;1.00
25512;DHT22;13414;44.534;18.700;2022-08-27T11:18:36;31.70;1.00
25512;DHT22;13414;44.534;18.700;2022-08-27T11:21:13;31.80;99.90
25512;DHT22;13414;44.534;18.700;2022-08-27T11:23:45;31.70;1.00
25512;DHT22;13414;44.534;18.700;2022-08-27T11:26:13;31.90;99.90
25512;DHT22;13414;44.534;18.700;2022-08-27T11:28:43;31.90;1.00
25512;DHT22;13414;44.534;18.700;2022-08-27T11:31:18;31.70;1.00
25512;DHT22;13414;44.534;18.700;2022-08-27T11:33:55;31.70;33.90
25512;DHT22;13414;44.534;18.700;2022-08-27T11:36:40;31.60;1.00
25512;DHT22;13414;44.534;18.700;2022-08-27T11:39:20;31.60;99.90
25512;DHT22;13414;44.534;18.700;2022-08-27T11:42:04;31.60;99.90
25512;DHT22;13414;44.534;18.700;2022-08-27T11:44:40;31.70;1.20
25512;DHT22;13414;44.534;18.700;2022-08-27T11:47:12;31.70;1.00
25512;DHT22;13414;44.534;18.700;2022-08-27T11:49:45;31.70;1.00
25512;DHT22;13414;44.534;18.700;2022-08-27T11:52:21;31.70;1.00
25512;DHT22;13414;44.534;18.700;2022-08-27T11:54:51;31.90;1.00
25512;DHT22;13414;44.534;18.700;2022-08-27T11:57:28;31.80;1.00
25512;DHT22;13414;44.534;18.700;2022-08-27T11:59:56;31.80;1.00
25512;DHT22;13414;44.534;18.700;2022-08-27T12:02:26;31.60;1.00
25512;DHT22;13414;44.534;18.700;2022-08-27T12:05:06;31.70;1.00
25512;DHT22;13414;44.534;18.700;2022-08-27T12:07:35;31.70;1.00
25512;DHT22;13414;44.534;18.700;2022-08-27T12:10:29;31.70;1.00
25512;DHT22;13414;44.534;18.700;2022-08-27T12:13:11;31.60;1.00
25512;DHT22;13414;44.534;18.700;2022-08-27T12:15:49;31.50;1.00
25512;DHT22;13414;44.534;18.700;2022-08-27T12:18:35;31.70;1.00
25512;DHT22;13414;44.534;18.700;2022-08-27T12:21:16;31.70;1.00
25512;DHT22;13414;44.534;18.700;2022-08-27T12:24:01;31.70;99.90
25512;DHT22;13414;44.534;18.700;2022-08-27T12:26:33;31.60;99.90
25512;DHT22;13414;44.534;18.700;2022-08-27T12:29:23;31.50;99.90
25512;DHT22;13414;44.534;18.700;2022-08-27T12:32:01;31.80;1.00
25512;DHT22;13414;44.534;18.700;2022-08-27T12:34:29;31.70;1.00
25512;DHT22;13414;44.534;18.700;2022-08-27T12:37:00;31.60;1.00
25512;DHT22;13414;44.534;18.700;2022-08-27T12:39:31;31.80;25.00
25512;DHT22;13414;44.534;18.700;2022-08-27T12:42:02;31.70;1.00
25512;DHT22;13414;44.534;18.700;2022-08-27T12:44:37;31.70;1.00
25512;DHT22;13414;44.534;18.700;2022-08-27T12:47:08;31.70;99.90
25512;DHT22;13414;44.534;18.700;2022-08-27T12:49:42;31.70;1.00
25512;DHT22;13414;44.534;18.700;2022-08-27T12:52:20;31.60;99.90
25512;DHT22;13414;44.534;18.700;2022-08-27T12:55:02;31.50;95.10
25512;DHT22;13414;44.534;18.700;2022-08-27T12:57:35;31.60;99.90
25512;DHT22;13414;44.534;18.700;2022-08-27T13:00:07;31.60;1.00
25512;DHT22;13414;44.534;18.700;2022-08-27T13:02:56;31.60;1.00
25512;DHT22;13414;44.534;18.700;2022-08-27T13:05:36;31.60;1.00
25512;DHT22;13414;44.534;18.700;2022-08-27T13:08:05;31.70;1.00
25512;DHT22;13414;44.534;18.700;2022-08-27T13:10:43;31.60;99.90
25512;DHT22;13414;44.534;18.700;2022-08-27T13:13:18;31.70;1.00
25512;DHT22;13414;44.534;18.700;2022-08-27T13:15:47;31.80;99.90
25512;DHT22;13414;44.534;18.700;2022-08-27T13:18:15;31.70;1.00
25512;DHT22;13414;44.534;18.700;2022-08-27T13:20:43;31.70;93.30
25512;DHT22;13414;44.534;18.700;2022-08-27T13:23:18;31.60;1.00
25512;DHT22;13414;44.534;18.700;2022-08-27T13:25:55;31.50;1.00
25512;DHT22;13414;44.534;18.700;2022-08-27T13:28:27;31.50;1.00
25512;DHT22;13414;44.534;18.700;2022-08-27T13:30:56;31.50;99.90
25512;DHT22;13414;44.534;18.700;2022-08-27T13:33:26;31.70;99.90
25512;DHT22;13414;44.534;18.700;2022-08-27T13:35:54;31.70;1.00
25512;DHT22;13414;44.534;18.700;2022-08-27T13:38:28;31.60;99.90
25512;DHT22;13414;44.534;18.700;2022-08-27T13:40:58;31.60;1.00
25512;DHT22;13414;44.534;18.700;2022-08-27T13:43:32;31.70;87.70
25512;DHT22;13414;44.534;18.700;2022-08-27T13:46:05;31.60;55.60
25512;DHT22;13414;44.534;18.700;2022-08-27T13:48:33;31.60;1.00
25512;DHT22;13414;44.534;18.700;2022-08-27T13:51:00;31.60;1.00
25512;DHT22;13414;44.534;18.700;2022-08-27T13:53:30;31.70;1.00
25512;DHT22;13414;44.534;18.700;2022-08-27T13:56:26;31.70;99.90
25512;DHT22;13414;44.534;18.700;2022-08-27T13:58:54;31.70;1.00
25512;DHT22;13414;44.534;18.700;2022-08-27T14:01:27;31.80;1.00
25512;DHT22;13414;44.534;18.700;2022-08-27T14:03:57;31.80;1.00
25512;DHT22;13414;44.534;18.700;2022-08-27T14:06:28;31.90;1.00
25512;DHT22;13414;44.534;18.700;2022-08-27T14:09:07;31.90;1.00
25512;DHT22;13414;44.534;18.700;2022-08-27T14:11:36;31.90;1.00
25512;DHT22;13414;44.534;18.700;2022-08-27T14:14:04;31.80;9.30
25512;DHT22;13414;44.534;18.700;2022-08-27T14:16:33;31.80;99.90
25512;DHT22;13414;44.534;18.700;2022-08-27T14:19:05;31.70;1.00
25512;DHT22;13414;44.534;18.700;2022-08-27T14:21:36;31.50;1.00
25512;DHT22;13414;44.534;18.700;2022-08-27T14:24:06;31.50;1.00
25512;DHT22;13414;44.534;18.700;2022-08-27T14:26:34;31.50;99.90
25512;DHT22;13414;44.534;18.700;2022-08-27T14:29:01;31.50;1.00
25512;DHT22;13414;44.534;18.700;2022-08-27T14:31:28;31.40;1.00
25512;DHT22;13414;44.534;18.700;2022-08-27T14:33:56;31.40;1.00
25512;DHT22;13414;44.534;18.700;2022-08-27T14:36:24;31.40;99.90
25512;DHT22;13414;44.534;18.700;2022-08-27T14:38:53;31.20;99.90
25512;DHT22;13414;44.534;18.700;2022-08-27T14:41:22;31.30;99.90
25512;DHT22;13414;44.534;18.700;2022-08-27T14:43:50;31.30;1.00
25512;DHT22;13414;44.534;18.700;2022-08-27T14:46:22;31.40;1.00
25512;DHT22;13414;44.534;18.700;2022-08-27T14:48:50;31.30;99.90
25512;DHT22;13414;44.534;18.700;2022-08-27T14:51:22;31.30;1.00
25512;DHT22;13414;44.534;18.700;2022-08-27T14:53:50;31.30;99.90
25512;DHT22;13414;44.534;18.700;2022-08-27T14:56:18;31.20;57.30
25512;DHT22;13414;44.534;18.700;2022-08-27T14:58:47;31.20;99.90
25512;DHT22;13414;44.534;18.700;2022-08-27T15:01:15;31.10;1.00
25512;DHT22;13414;44.534;18.700;2022-08-27T15:03:47;31.00;1.00
25512;DHT22;13414;44.534;18.700;2022-08-27T15:06:17;31.00;99.90
25512;DHT22;13414;44.534;18.700;2022-08-27T15:08:47;31.00;1.00
25512;DHT22;13414;44.534;18.700;2022-08-27T15:11:16;30.90;1.00
25512;DHT22;13414;44.534;18.700;2022-08-27T15:13:45;30.50;1.00
25512;DHT22;13414;44.534;18.700;2022-08-27T15:16:14;30.40;1.00
25512;DHT22;13414;44.534;18.700;2022-08-27T15:18:42;30.20;99.90
25512;DHT22;13414;44.534;18.700;2022-08-27T15:21:10;30.00;1.00
25512;DHT22;13414;44.534;18.700;2022-08-27T15:23:37;29.80;99.90
25512;DHT22;13414;44.534;18.700;2022-08-27T15:26:04;29.60;99.90
25512;DHT22;13414;44.534;18.700;2022-08-27T15:28:32;29.40;99.90
25512;DHT22;13414;44.534;18.700;2022-08-27T15:31:00;29.30;99.90
25512;DHT22;13414;44.534;18.700;2022-08-27T15:33:28;29.30;1.00
25512;DHT22;13414;44.534;18.700;2022-08-27T15:35:55;29.10;75.90
25512;DHT22;13414;44.534;18.700;2022-08-27T15:38:23;29.00;92.70
25512;DHT22;13414;44.534;18.700;2022-08-27T15:40:50;28.90;99.90
25512;DHT22;13414;44.534;18.700;2022-08-27T15:43:17;28.80;99.90
25512;DHT22;13414;44.534;18.700;2022-08-27T15:45:45;28.80;99.90